Time;durP1;ratioP1;P1;durP2;ratioP2;P2;SDS_P1;SDS_P2;PMS_P1;PMS_P2;Temp;Humidity;BMP_temperature;BMP_pressure;BME280_temperature;BME280_humidity;BME280_pressure;Samples;Min_cycle;Max_cycle;Signal;HPM_P1;HPM_P2
2021/03/05 00:00:04;;;;;;;10.43;9.33;;;;;;;6.34;97.99;100575.45;635731;220;43649;-77
2021/03/05 00:02:32;;;;;;;10.10;8.50;;;;;;;6.23;97.46;100577.97;640289;224;24913;-78
2021/03/05 00:05:00;;;;;;;13.13;9.80;;;;;;;6.16;97.61;100590.94;640667;224;24946;-77
2021/03/05 00:07:28;;;;;;;13.27;10.67;;;;;;;6.11;97.00;100585.28;621177;229;32894;-77
2021/03/05 00:09:55;;;;;;;12.90;10.50;;;;;;;6.04;97.84;100594.38;639159;220;29529;-77
2021/03/05 00:12:23;;;;;;;13.40;9.30;;;;;;;5.97;97.11;100600.91;638842;224;24900;-77
2021/03/05 00:14:51;;;;;;;13.90;9.97;;;;;;;5.85;95.54;100594.33;624310;229;24939;-77
2021/03/05 00:17:19;;;;;;;15.43;10.30;;;;;;;5.79;95.82;100597.34;625652;228;24960;-77
2021/03/05 00:19:47;;;;;;;13.87;9.70;;;;;;;5.85;96.98;100610.28;623039;229;24971;-77
2021/03/05 00:22:15;;;;;;;15.13;9.73;;;;;;;5.74;95.88;100599.39;627018;229;24941;-77
2021/03/05 00:24:43;;;;;;;12.40;9.13;;;;;;;5.75;95.27;100614.41;638215;224;24943;-78
2021/03/05 00:27:11;;;;;;;16.67;10.80;;;;;;;5.74;95.83;100616.16;637710;225;24951;-77
2021/03/05 00:29:39;;;;;;;17.27;11.70;;;;;;;5.74;95.29;100617.92;630591;222;32737;-77
2021/03/05 00:32:07;;;;;;;15.43;10.90;;;;;;;5.72;96.41;100625.77;621052;229;24968;-77
2021/03/05 00:34:35;;;;;;;18.97;11.50;;;;;;;5.65;96.59;100619.39;639087;224;24926;-78
2021/03/05 00:37:03;;;;;;;15.57;11.60;;;;;;;5.59;95.53;100613.33;625277;229;27241;-77
2021/03/05 00:39:31;;;;;;;15.77;9.90;;;;;;;5.67;94.62;100614.95;637001;223;30280;-77
2021/03/05 00:41:59;;;;;;;15.37;10.13;;;;;;;5.63;95.94;100627.67;628666;227;25006;-77
2021/03/05 00:44:27;;;;;;;18.10;11.27;;;;;;;5.59;96.93;100630.10;624002;228;24978;-77
2021/03/05 00:46:55;;;;;;;19.30;11.23;;;;;;;5.60;96.80;100624.84;627697;229;24898;-77
2021/03/05 00:49:23;;;;;;;17.50;11.10;;;;;;;5.63;95.75;100627.67;625168;226;24888;-77
2021/03/05 00:51:51;;;;;;;19.80;11.30;;;;;;;5.53;96.45;100626.19;638045;225;24971;-78
2021/03/05 00:54:19;;;;;;;16.67;10.83;;;;;;;5.50;96.44;100630.73;635151;225;24975;-77
2021/03/05 00:56:46;;;;;;;20.80;13.70;;;;;;;5.50;96.45;100625.58;629412;225;43970;-78
2021/03/05 00:59:14;;;;;;;18.87;13.28;;;;;;;5.56;94.95;100620.00;627174;224;33203;-77
2021/03/05 01:01:42;;;;;;;22.17;13.33;;;;;;;5.52;95.17;100619.39;633506;225;23797;-77
2021/03/05 01:04:10;;;;;;;19.77;12.10;;;;;;;5.48;96.39;100632.10;634137;225;24951;-77
2021/03/05 01:06:38;;;;;;;18.77;11.77;;;;;;;5.41;95.49;100624.89;633416;225;24957;-77
2021/03/05 01:09:07;;;;;;;19.20;12.17;;;;;;;5.47;96.33;100636.08;638969;220;25008;-77
2021/03/05 01:11:35;;;;;;;21.87;13.83;;;;;;;5.50;95.16;100634.61;633047;225;32783;-77
2021/03/05 01:14:04;;;;;;;19.30;12.07;;;;;;;5.51;95.70;100638.84;639660;223;25051;-78
2021/03/05 01:16:32;;;;;;;20.37;13.28;;;;;;;5.57;94.37;100643.11;617968;229;32811;-78
2021/03/05 01:19:00;;;;;;;19.33;12.43;;;;;;;5.51;95.07;100641.42;640061;220;23853;-77
2021/03/05 01:21:28;;;;;;;22.47;11.90;;;;;;;5.42;94.13;100634.28;621416;230;24993;-77
2021/03/05 01:23:56;;;;;;;21.70;12.50;;;;;;;5.44;94.80;100640.16;626223;226;24929;-78
2021/03/05 01:26:24;;;;;;;19.43;12.10;;;;;;;5.33;94.05;100644.27;627946;228;24942;-78
2021/03/05 01:28:52;;;;;;;19.87;10.60;;;;;;;5.49;93.31;100645.83;626732;227;24950;-77
2021/03/05 01:31:20;;;;;;;20.20;12.10;;;;;;;5.45;93.78;100648.25;620994;230;24997;-77
2021/03/05 01:33:48;;;;;;;17.47;10.90;;;;;;;5.48;94.47;100650.63;638506;224;24941;-78
2021/03/05 01:36:16;;;;;;;21.87;10.50;;;;;;;5.36;94.65;100650.53;624786;229;24905;-77
2021/03/05 01:38:43;;;;;;;20.17;12.10;;;;;;;5.35;95.24;100656.62;624160;226;24892;-77
2021/03/05 01:41:11;;;;;;;18.80;11.40;;;;;;;5.34;93.11;100643.80;640514;222;25033;-77
2021/03/05 01:43:40;;;;;;;21.83;12.17;;;;;;;5.41;93.71;100653.27;630431;224;24945;-77
2021/03/05 01:46:07;;;;;;;20.83;12.23;;;;;;;5.29;93.50;100650.55;638430;223;24928;-77
2021/03/05 01:48:35;;;;;;;18.90;11.70;;;;;;;5.27;92.60;100649.01;637498;222;24962;-77
2021/03/05 01:51:06;;;;;;;19.60;10.57;;;;;;;5.24;92.88;100660.82;639962;224;24892;-77
2021/03/05 01:53:34;;;;;;;14.93;9.67;;;;;;;5.24;92.01;100647.93;621804;228;24980;-77
2021/03/05 01:56:02;;;;;;;17.60;11.13;;;;;;;5.23;91.74;100648.39;628006;227;24905;-78
2021/03/05 01:58:30;;;;;;;17.57;10.47;;;;;;;5.26;92.43;100646.07;627976;225;24897;-77
2021/03/05 02:00:58;;;;;;;20.80;11.10;;;;;;;5.22;91.86;100653.66;636930;224;25038;-77
2021/03/05 02:03:26;;;;;;;19.90;11.33;;;;;;;5.19;92.25;100648.67;622615;229;24922;-78
2021/03/05 02:05:54;;;;;;;16.20;9.37;;;;;;;5.18;92.03;100655.58;637470;223;24934;-77
2021/03/05 02:08:22;;;;;;;17.83;10.53;;;;;;;5.12;92.36;100661.15;627495;225;24896;-77
2021/03/05 02:10:50;;;;;;;17.87;9.70;;;;;;;5.13;91.73;100655.06;642308;223;24894;-77
2021/03/05 02:13:18;;;;;;;14.20;9.53;;;;;;;5.12;92.27;100659.03;640634;224;24944;-77
2021/03/05 02:15:45;;;;;;;16.17;9.80;;;;;;;5.05;90.98;100656.83;640758;224;24918;-77
2021/03/05 02:18:15;;;;;;;15.43;10.20;;;;;;;5.07;91.86;100654.19;639238;224;24949;-77
2021/03/05 02:20:51;;;;;;;16.23;10.27;;;;;;;5.07;92.82;100664.49;638081;224;24997;-77
2021/03/05 02:23:28;;;;;;;14.00;9.40;;;;;;;5.09;93.33;100660.06;624958;229;24894;-76
2021/03/05 02:26:17;;;;;;;16.27;9.57;;;;;;;5.05;92.92;100666.31;625151;229;24942;-76
2021/03/05 02:29:04;;;;;;;14.27;8.93;;;;;;;5.01;91.48;100655.85;626537;225;24905;-76
2021/03/05 02:31:35;;;;;;;14.33;9.37;;;;;;;5.07;91.43;100656.77;628509;228;30236;-78
2021/03/05 02:34:03;;;;;;;15.20;9.33;;;;;;;5.11;91.30;100659.95;627002;228;24940;-77
2021/03/05 02:36:33;;;;;;;15.80;10.50;;;;;;;5.03;92.63;100669.00;641427;224;24967;-77
2021/03/05 02:39:04;;;;;;;17.23;10.90;;;;;;;5.00;92.93;100669.66;640924;220;24973;-77
2021/03/05 02:41:32;;;;;;;16.40;11.10;;;;;;;5.01;93.14;100681.63;638432;224;29133;-76
2021/03/05 02:44:00;;;;;;;14.30;8.70;;;;;;;4.98;92.81;100684.41;638129;224;25038;-77
2021/03/05 02:46:28;;;;;;;15.43;10.33;;;;;;;4.97;93.40;100684.05;625543;229;24931;-77
2021/03/05 02:48:57;;;;;;;17.30;10.60;;;;;;;5.02;91.40;100670.39;636276;225;25233;-76
2021/03/05 02:51:25;;;;;;;18.60;10.30;;;;;;;5.03;91.09;100672.86;637807;224;25026;-77
2021/03/05 02:53:53;;;;;;;14.57;10.47;;;;;;;5.01;91.79;100676.47;640718;224;24938;-76
2021/03/05 02:56:20;;;;;;;16.93;10.47;;;;;;;5.09;91.39;100675.99;626646;229;24968;-77
2021/03/05 02:58:48;;;;;;;14.75;10.68;;;;;;;5.19;89.71;100667.55;619181;226;33087;-77
2021/03/05 03:01:16;;;;;;;14.33;9.70;;;;;;;5.21;90.74;100670.05;624222;228;23794;-76
2021/03/05 03:03:44;;;;;;;14.67;9.23;;;;;;;5.15;91.23;100675.13;638295;225;24931;-77
2021/03/05 03:06:12;;;;;;;16.40;10.40;;;;;;;5.20;91.19;100673.52;638948;222;24939;-77
2021/03/05 03:08:40;;;;;;;15.80;10.67;;;;;;;5.22;91.31;100678.14;626137;226;24911;-77
2021/03/05 03:11:08;;;;;;;16.20;10.87;;;;;;;5.18;90.74;100680.53;634011;225;24928;-77
2021/03/05 03:13:36;;;;;;;16.30;10.53;;;;;;;5.32;89.80;100683.88;626426;229;24983;-77
2021/03/05 03:16:04;;;;;;;18.17;11.10;;;;;;;5.23;90.21;100688.82;627298;228;24938;-77
2021/03/05 03:18:32;;;;;;;16.27;9.97;;;;;;;5.29;89.21;100675.52;626045;228;27100;-77
2021/03/05 03:21:00;;;;;;;17.27;10.43;;;;;;;5.23;89.21;100682.38;625448;229;24937;-76
2021/03/05 03:23:28;;;;;;;17.77;10.27;;;;;;;5.27;89.26;100678.20;626156;229;24939;-76
2021/03/05 03:25:56;;;;;;;13.80;9.03;;;;;;;5.29;89.37;100686.66;626569;229;24914;-76
2021/03/05 03:28:23;;;;;;;14.27;9.47;;;;;;;5.13;88.64;100675.69;625800;226;25231;-76
2021/03/05 03:30:51;;;;;;;14.63;9.23;;;;;;;5.19;89.10;100699.77;625238;229;27047;-77
2021/03/05 03:33:19;;;;;;;15.50;9.33;;;;;;;5.23;90.22;100701.72;629596;226;24931;-76
2021/03/05 03:35:47;;;;;;;15.03;10.20;;;;;;;5.20;90.28;100705.75;625765;228;24894;-76
2021/03/05 03:38:15;;;;;;;15.93;10.33;;;;;;;5.23;89.19;100705.58;626131;225;25157;-77
2021/03/05 03:40:43;;;;;;;17.70;9.90;;;;;;;5.34;90.14;100710.38;640391;223;24958;-77
2021/03/05 03:43:11;;;;;;;14.70;9.70;;;;;;;5.39;88.86;100710.57;625030;229;25027;-77
2021/03/05 03:45:39;;;;;;;19.30;10.80;;;;;;;5.41;88.28;100705.67;625973;227;25002;-77
2021/03/05 03:48:08;;;;;;;17.53;10.73;;;;;;;5.48;89.94;100718.52;639860;220;24878;-77
2021/03/05 03:50:36;;;;;;;14.83;10.27;;;;;;;5.46;90.57;100729.87;630240;225;24932;-77
2021/03/05 03:53:05;;;;;;;17.80;10.83;;;;;;;5.41;88.36;100719.03;624662;229;24929;-77
2021/03/05 03:55:33;;;;;;;14.30;9.80;;;;;;;5.33;90.26;100717.76;638108;224;24925;-77
2021/03/05 03:58:01;;;;;;;16.17;10.70;;;;;;;5.38;90.07;100726.51;625476;226;24894;-77
2021/03/05 04:00:29;;;;;;;18.67;11.50;;;;;;;5.32;89.86;100726.42;633478;225;24936;-76
2021/03/05 04:02:57;;;;;;;16.53;10.07;;;;;;;5.36;90.17;100730.48;634975;225;24945;-77
2021/03/05 04:05:26;;;;;;;20.30;11.40;;;;;;;5.41;90.45;100740.95;624976;228;24901;-77
2021/03/05 04:07:54;;;;;;;16.73;11.23;;;;;;;5.25;90.38;100729.05;624888;228;24902;-76
2021/03/05 04:10:21;;;;;;;17.60;11.33;;;;;;;5.36;90.47;100741.26;633979;222;24948;-77
2021/03/05 04:12:50;;;;;;;18.20;10.77;;;;;;;5.33;89.99;100747.41;625527;229;24961;-78
2021/03/05 04:15:18;;;;;;;16.43;10.90;;;;;;;5.32;90.15;100744.48;627864;228;24924;-77
2021/03/05 04:17:46;;;;;;;18.40;11.60;;;;;;;5.38;90.49;100747.61;629012;226;24962;-77
2021/03/05 04:20:15;;;;;;;16.10;10.07;;;;;;;5.44;90.37;100749.78;624825;226;27102;-77
2021/03/05 04:22:43;;;;;;;19.57;11.00;;;;;;;5.51;89.71;100747.18;638472;224;27108;-77
2021/03/05 04:25:12;;;;;;;18.77;10.90;;;;;;;5.53;90.52;100759.52;625915;229;24952;-77
2021/03/05 04:27:40;;;;;;;18.10;11.47;;;;;;;5.56;90.71;100761.89;637724;225;24937;-77
2021/03/05 04:30:09;;;;;;;21.87;12.60;;;;;;;5.57;90.92;100760.95;640094;219;24940;-77
2021/03/05 04:32:38;;;;;;;21.13;12.47;;;;;;;5.54;91.41;100761.98;638666;224;24928;-77
2021/03/05 04:35:07;;;;;;;18.43;11.80;;;;;;;5.62;90.51;100765.34;620933;229;24895;-77
2021/03/05 04:37:35;;;;;;;17.47;10.73;;;;;;;5.47;90.98;100765.87;625425;229;24956;-77
2021/03/05 04:40:04;;;;;;;20.33;11.53;;;;;;;5.49;90.97;100768.35;638379;221;25042;-77
2021/03/05 04:42:31;;;;;;;18.37;11.67;;;;;;;5.48;91.72;100771.86;638176;225;24962;-77
2021/03/05 04:44:59;;;;;;;16.50;11.10;;;;;;;5.55;91.35;100773.13;639799;225;24970;-77
2021/03/05 04:47:27;;;;;;;19.47;12.13;;;;;;;5.60;92.30;100774.94;631444;225;24942;-77
2021/03/05 04:49:55;;;;;;;22.77;13.20;;;;;;;5.55;91.40;100778.30;624409;226;24911;-77
2021/03/05 04:52:23;;;;;;;19.40;12.23;;;;;;;5.54;92.03;100779.22;635066;223;24929;-77
2021/03/05 04:54:51;;;;;;;19.57;12.93;;;;;;;5.63;91.58;100783.34;623939;229;24899;-77
2021/03/05 04:57:19;;;;;;;19.27;12.80;;;;;;;5.55;91.68;100785.57;624984;229;24907;-77
2021/03/05 04:59:47;;;;;;;21.73;13.13;;;;;;;5.62;91.91;100782.11;625596;225;24888;-78
2021/03/05 05:02:15;;;;;;;18.87;11.37;;;;;;;5.69;90.74;100780.81;636582;225;24962;-77
2021/03/05 05:04:42;;;;;;;23.30;12.23;;;;;;;5.63;91.66;100783.34;624636;229;24910;-76
2021/03/05 05:07:11;;;;;;;18.83;11.77;;;;;;;5.66;91.22;100787.47;637240;225;24934;-76
2021/03/05 05:09:39;;;;;;;21.03;11.87;;;;;;;5.65;92.00;100788.39;641542;220;24885;-76
2021/03/05 05:12:07;;;;;;;19.80;11.80;;;;;;;5.51;92.20;100793.61;627740;225;24946;-76
2021/03/05 05:14:36;;;;;;;20.23;12.47;;;;;;;5.60;91.45;100783.97;638913;224;24997;-76
2021/03/05 05:17:04;;;;;;;18.00;12.10;;;;;;;5.53;91.15;100782.73;625841;229;24957;-76
2021/03/05 05:19:32;;;;;;;18.80;12.07;;;;;;;5.55;91.24;100786.03;625663;225;24897;-76
2021/03/05 05:22:00;;;;;;;21.50;11.30;;;;;;;5.56;91.71;100784.64;625170;229;24927;-77
2021/03/05 05:24:28;;;;;;;21.13;12.53;;;;;;;5.57;91.60;100786.76;635905;225;24927;-76
2021/03/05 05:26:56;;;;;;;19.43;11.80;;;;;;;5.57;92.20;100790.63;623997;229;24922;-77
2021/03/05 05:29:24;;;;;;;17.67;12.60;;;;;;;5.43;91.98;100790.69;626333;225;24887;-76
2021/03/05 05:31:52;;;;;;;22.07;12.57;;;;;;;5.41;91.68;100794.66;639536;224;24932;-77
2021/03/05 05:34:20;;;;;;;24.27;13.70;;;;;;;5.40;91.24;100799.45;638341;225;24913;-77
2021/03/05 05:36:48;;;;;;;23.57;14.57;;;;;;;5.31;91.90;100803.42;638589;225;25098;-78
2021/03/05 05:39:16;;;;;;;20.07;13.30;;;;;;;5.10;91.22;100811.70;633350;225;24918;-76
2021/03/05 05:41:44;;;;;;;24.50;14.67;;;;;;;4.92;93.14;100812.34;629346;225;24959;-76
2021/03/05 05:44:11;;;;;;;23.40;13.80;;;;;;;4.66;94.96;100823.80;632352;225;28115;-77
2021/03/05 05:46:41;;;;;;;24.27;13.30;;;;;;;4.48;96.98;100826.99;636852;225;24922;-77
2021/03/05 05:49:09;;;;;;;32.37;16.50;;;;;;;4.34;99.60;100835.98;637047;225;24991;-76
2021/03/05 05:51:36;;;;;;;31.50;16.73;;;;;;;4.28;100.00;100839.40;622132;230;24989;-76
2021/03/05 05:54:05;;;;;;;27.17;14.43;;;;;;;4.30;100.00;100839.67;625627;229;24904;-77
2021/03/05 05:56:33;;;;;;;36.77;20.02;;;;;;;4.44;100.00;100840.98;634140;223;43923;-77
2021/03/05 05:59:00;;;;;;;36.37;18.43;;;;;;;4.35;100.00;100838.93;639704;224;23824;-77
2021/03/05 06:01:28;;;;;;;29.70;16.47;;;;;;;4.24;100.00;100834.06;639304;224;24886;-77
2021/03/05 06:03:56;;;;;;;37.10;16.47;;;;;;;4.34;100.00;100836.45;640913;224;24910;-77
2021/03/05 06:06:24;;;;;;;30.50;17.20;;;;;;;4.39;100.00;100839.61;625049;229;24970;-76
2021/03/05 06:08:52;;;;;;;33.40;17.73;;;;;;;4.39;100.00;100839.14;637565;223;24958;-75
2021/03/05 06:11:20;;;;;;;28.70;16.53;;;;;;;4.46;100.00;100851.19;633525;225;25991;-76
2021/03/05 06:13:48;;;;;;;31.33;16.33;;;;;;;4.56;100.00;100848.91;639545;225;24891;-76
2021/03/05 06:16:16;;;;;;;31.23;16.70;;;;;;;4.61;100.00;100852.85;639402;224;25005;-76
2021/03/05 06:18:44;;;;;;;31.77;17.67;;;;;;;4.60;100.00;100839.61;638479;224;24954;-76
2021/03/05 06:21:12;;;;;;;32.93;17.57;;;;;;;4.63;99.60;100849.72;639529;222;24922;-77
2021/03/05 06:23:57;;;;;;;35.43;20.40;;;;;;;4.64;99.44;100847.51;633561;224;33064;-77
2021/03/05 06:26:25;;;;;;;33.00;18.13;;;;;;;4.71;99.69;100852.68;632504;225;24206;-76
2021/03/05 06:29:02;;;;;;;35.58;21.23;;;;;;;4.90;98.85;100855.42;619879;225;33973;-76
2021/03/05 06:31:30;;;;;;;30.43;18.83;;;;;;;4.85;99.16;100857.47;637706;224;24861;-76
2021/03/05 06:33:59;;;;;;;35.80;18.13;;;;;;;4.80;98.71;100856.47;639393;224;27096;-76
2021/03/05 06:36:27;;;;;;;36.00;18.17;;;;;;;4.82;99.25;100863.64;639461;223;24934;-76
2021/03/05 06:38:55;;;;;;;36.77;19.00;;;;;;;4.85;99.16;100866.48;638199;224;27515;-76
2021/03/05 06:41:23;;;;;;;34.97;17.80;;;;;;;4.87;98.67;100874.95;640835;222;24917;-76
2021/03/05 06:43:51;;;;;;;30.63;17.10;;;;;;;4.91;99.09;100880.28;640890;224;24923;-76
2021/03/05 06:46:26;;;;;;;36.60;18.67;;;;;;;4.88;99.45;100885.63;640233;224;24932;-76
2021/03/05 06:48:54;;;;;;;35.30;18.60;;;;;;;4.84;99.74;100888.02;635525;223;31374;-77
2021/03/05 06:51:22;;;;;;;33.23;18.10;;;;;;;4.95;99.08;100889.05;635241;225;24919;-76
2021/03/05 06:53:50;;;;;;;30.57;17.43;;;;;;;4.86;98.88;100888.76;635811;225;24939;-78
2021/03/05 06:56:25;;;;;;;36.07;19.20;;;;;;;4.87;99.16;100891.70;624994;229;24859;-76
2021/03/05 06:59:01;;;;;;;29.83;16.77;;;;;;;4.81;98.38;100888.21;625312;226;24906;-76
2021/03/05 07:01:29;;;;;;;31.03;17.40;;;;;;;4.93;98.01;100896.50;637994;223;25244;-77
2021/03/05 07:04:06;;;;;;;28.13;16.93;;;;;;;4.99;97.02;100900.81;626219;228;24946;-76
2021/03/05 07:06:34;;;;;;;26.97;17.00;;;;;;;4.98;95.64;100895.75;638751;224;24924;-76
2021/03/05 07:09:02;;;;;;;28.35;18.20;;;;;;;5.13;95.39;100893.53;634153;220;32915;-77
2021/03/05 07:11:35;;;;;;;29.87;18.52;;;;;;;5.19;93.66;100891.86;635027;224;32719;-76
2021/03/05 07:14:02;;;;;;;21.70;12.80;;;;;;;5.01;91.78;100887.83;638685;224;23747;-76
2021/03/05 07:16:39;;;;;;;18.43;11.10;;;;;;;5.04;89.77;100881.19;639277;224;24944;-76
2021/03/05 07:19:07;;;;;;;23.50;10.53;;;;;;;4.98;89.59;100884.16;638460;224;24936;-77
2021/03/05 07:21:38;;;;;;;15.90;9.87;;;;;;;4.79;88.15;100879.29;640477;224;24897;-77
2021/03/05 07:24:06;;;;;;;18.43;10.63;;;;;;;4.79;88.80;100897.78;639653;224;24927;-76
2021/03/05 07:26:42;;;;;;;15.47;9.27;;;;;;;4.75;89.56;100895.83;639549;224;24930;-76
2021/03/05 07:29:04;;;;;;;14.10;8.80;;;;;;;4.82;89.32;100912.59;641546;220;24861;-77
2021/03/05 07:31:32;;;;;;;14.60;8.90;;;;;;;4.84;89.56;100908.64;640683;224;24882;-77
2021/03/05 07:34:01;;;;;;;18.47;10.10;;;;;;;4.79;88.38;100902.94;640101;224;24896;-76
2021/03/05 07:36:29;;;;;;;18.93;10.00;;;;;;;4.77;89.70;100919.29;639959;224;26099;-77
2021/03/05 07:38:58;;;;;;;15.37;9.10;;;;;;;4.76;89.76;100924.08;639269;220;24885;-76
2021/03/05 07:41:26;;;;;;;14.13;8.77;;;;;;;4.76;88.57;100922.79;625598;226;24911;-77
2021/03/05 07:43:54;;;;;;;16.87;9.30;;;;;;;4.68;89.68;100931.45;639283;224;24875;-76
2021/03/05 07:46:22;;;;;;;14.07;9.00;;;;;;;4.67;90.95;100940.09;624713;229;25953;-76
2021/03/05 07:48:50;;;;;;;13.30;9.00;;;;;;;4.67;89.89;100931.54;625353;226;24888;-76
2021/03/05 07:51:18;;;;;;;15.93;9.40;;;;;;;4.65;89.52;100935.95;627285;228;25039;-77
2021/03/05 07:53:52;;;;;;;15.15;10.20;;;;;;;4.77;88.74;100934.75;623100;227;32932;-78
2021/03/05 07:56:30;;;;;;;17.03;8.90;;;;;;;4.71;88.64;100927.39;629427;226;23761;-76
2021/03/05 07:58:58;;;;;;;15.30;9.07;;;;;;;4.68;88.23;100931.91;626074;225;24891;-77
2021/03/05 08:01:48;;;;;;;11.67;8.30;;;;;;;4.75;86.66;100931.44;628473;225;24922;-76
2021/03/05 08:04:15;;;;;;;11.40;7.27;;;;;;;4.76;86.97;100926.66;625389;229;24977;-77
2021/03/05 08:06:43;;;;;;;11.90;7.97;;;;;;;4.88;87.87;100940.57;625409;228;24916;-76
2021/03/05 08:09:12;;;;;;;14.50;8.20;;;;;;;4.94;86.96;100944.55;625722;228;24933;-77
2021/03/05 08:11:40;;;;;;;13.37;7.70;;;;;;;4.95;85.91;100932.03;625222;229;24957;-78
2021/03/05 08:14:26;;;;;;;12.57;7.63;;;;;;;4.97;84.91;100934.05;623405;229;24887;-76
2021/03/05 08:16:54;;;;;;;10.30;6.47;;;;;;;4.93;84.82;100933.88;625792;229;25319;-76
2021/03/05 08:19:42;;;;;;;11.17;6.83;;;;;;;4.94;85.93;100935.07;625587;226;24921;-77
2021/03/05 08:22:10;;;;;;;11.67;6.10;;;;;;;4.95;87.24;100955.23;621128;228;24981;-77
2021/03/05 08:24:40;;;;;;;10.23;6.20;;;;;;;4.93;84.85;100950.62;641739;223;24864;-77
2021/03/05 08:27:07;;;;;;;12.00;7.20;;;;;;;4.96;85.24;100955.59;620079;229;24918;-77
2021/03/05 08:29:48;;;;;;;13.10;5.60;;;;;;;4.98;84.87;100952.46;628236;224;24919;-77
2021/03/05 08:32:40;;;;;;;9.17;5.67;;;;;;;4.94;85.13;100962.13;626502;228;26266;-76
2021/03/05 08:35:08;;;;;;;9.50;7.00;;;;;;;5.01;85.61;100965.16;624677;229;26166;-77
2021/03/05 08:37:36;;;;;;;10.95;7.35;;;;;;;4.97;84.72;100959.36;632839;224;32762;-81
2021/03/05 08:40:16;;;;;;;12.82;7.50;;;;;;;5.00;83.82;100958.34;634199;220;32750;-77
2021/03/05 08:42:43;;;;;;;9.63;6.13;;;;;;;4.82;83.29;100958.98;638827;224;24056;-77
2021/03/05 08:45:13;;;;;;;13.05;7.45;;;;;;;4.75;84.75;100976.98;620025;229;32786;-77
2021/03/05 08:47:41;;;;;;;12.37;7.58;;;;;;;4.94;85.17;100976.77;633339;224;32718;-77
2021/03/05 08:50:10;;;;;;;11.70;7.43;;;;;;;4.81;85.02;100977.11;636563;224;23809;-77
2021/03/05 08:52:39;;;;;;;10.80;5.93;;;;;;;4.85;84.93;100974.26;637993;224;25028;-76
2021/03/05 08:55:08;;;;;;;9.67;6.03;;;;;;;4.92;84.90;100975.55;639310;224;24908;-77
2021/03/05 08:57:41;;;;;;;11.50;5.90;;;;;;;4.86;85.49;100984.11;639096;224;25280;-78
2021/03/05 09:00:12;;;;;;;16.70;8.18;;;;;;;4.88;86.48;101002.42;629732;224;32900;-77
2021/03/05 09:02:38;;;;;;;9.07;6.57;;;;;;;4.88;85.30;100992.11;640800;221;24961;-77
2021/03/05 09:05:07;;;;;;;13.97;6.60;;;;;;;4.72;85.30;100980.58;636437;223;24855;-77
2021/03/05 09:07:48;;;;;;;8.87;6.07;;;;;;;4.79;85.17;100982.82;641439;223;24915;-77
2021/03/05 09:10:16;;;;;;;12.63;7.87;;;;;;;5.13;85.28;100990.22;634689;220;32808;-76
2021/03/05 09:12:54;;;;;;;12.47;6.43;;;;;;;5.11;85.05;100994.64;640352;224;24012;-76
2021/03/05 09:15:27;;;;;;;11.83;6.50;;;;;;;5.05;84.23;100997.09;639122;224;25183;-77
2021/03/05 09:17:53;;;;;;;11.33;7.12;;;;;;;5.00;84.34;100993.15;633740;224;32820;-76
2021/03/05 09:20:19;;;;;;;14.87;7.67;;;;;;;4.99;84.48;101006.95;641582;219;23762;-77
2021/03/05 09:22:47;;;;;;;11.17;7.27;;;;;;;4.94;85.01;101005.12;642096;224;24894;-77
2021/03/05 09:25:15;;;;;;;11.63;6.57;;;;;;;4.92;85.71;101006.93;637723;225;24940;-76
2021/03/05 09:27:44;;;;;;;14.40;7.23;;;;;;;5.09;85.54;101008.09;625488;229;24895;-77
2021/03/05 09:30:14;;;;;;;17.73;8.50;;;;;;;5.35;84.50;101007.83;635308;219;32794;-76
2021/03/05 09:32:47;;;;;;;13.50;7.00;;;;;;;5.40;84.31;101011.41;624308;229;23762;-76
2021/03/05 09:35:15;;;;;;;12.00;6.63;;;;;;;5.31;84.26;101005.05;638080;224;24995;-76
2021/03/05 09:37:43;;;;;;;14.93;7.00;;;;;;;5.33;83.38;101006.61;625623;229;24879;-76
2021/03/05 09:40:11;;;;;;;16.77;8.35;;;;;;;5.46;82.66;101000.71;635883;219;32761;-77
2021/03/05 09:42:44;;;;;;;13.00;8.35;;;;;;;5.66;82.39;101002.92;633657;224;32778;-77
2021/03/05 09:45:13;;;;;;;20.07;8.40;;;;;;;5.60;83.67;101011.02;640073;224;23787;-77
2021/03/05 09:47:47;;;;;;;13.85;8.25;;;;;;;5.64;83.75;100999.61;632633;225;32990;-76
2021/03/05 09:50:19;;;;;;;13.33;7.70;;;;;;;5.68;84.42;101019.14;634493;225;23802;-77
2021/03/05 09:52:47;;;;;;;17.90;7.80;;;;;;;5.50;84.22;101018.52;639138;224;24867;-76
2021/03/05 09:55:24;;;;;;;13.30;7.80;;;;;;;5.66;84.68;101032.60;627435;228;24936;-77
2021/03/05 09:57:52;;;;;;;15.33;8.20;;;;;;;5.63;83.91;101028.89;636512;225;24914;-78
2021/03/05 10:00:29;;;;;;;14.90;8.90;;;;;;;5.58;83.97;101016.28;622117;225;26001;-77
2021/03/05 10:03:04;;;;;;;14.80;8.20;;;;;;;5.59;84.43;101028.72;627698;228;24917;-77
2021/03/05 10:05:32;;;;;;;14.77;8.50;;;;;;;5.71;84.46;101029.73;626431;228;24953;-77
2021/03/05 10:08:00;;;;;;;16.47;10.03;;;;;;;5.69;83.08;101027.25;625927;227;26263;-76
2021/03/05 10:10:28;;;;;;;19.97;9.10;;;;;;;5.74;85.63;101032.94;633803;224;24934;-76
2021/03/05 10:12:56;;;;;;;20.30;10.53;;;;;;;5.64;83.39;101032.70;641852;223;25197;-77
2021/03/05 10:15:24;;;;;;;16.07;10.20;;;;;;;5.79;84.12;101043.01;620666;227;43477;-76
2021/03/05 10:17:52;;;;;;;21.03;9.37;;;;;;;5.88;83.93;101049.70;626831;227;23758;-76
2021/03/05 10:20:20;;;;;;;19.70;9.60;;;;;;;5.83;84.44;101050.45;630698;223;24911;-77
2021/03/05 10:22:51;;;;;;;18.17;8.97;;;;;;;5.91;83.56;101057.75;628331;227;24960;-77
2021/03/05 10:25:19;;;;;;;18.77;8.87;;;;;;;5.73;83.96;101048.06;642036;223;24870;-77
2021/03/05 10:30:21;;;;;;;16.97;9.03;;;;;;;5.87;85.40;101058.83;649010;217;29951;-76
2021/03/05 10:32:49;;;;;;;18.70;9.13;;;;;;;5.87;84.41;101067.87;640247;221;24941;-77
2021/03/05 10:35:17;;;;;;;19.77;9.60;;;;;;;5.95;84.67;101056.19;633051;225;26028;-77
2021/03/05 10:37:45;;;;;;;16.27;9.30;;;;;;;6.05;84.30;101071.09;641376;221;25303;-77
2021/03/05 10:40:14;;;;;;;18.63;9.70;;;;;;;6.13;85.41;101072.75;629560;225;25050;-77
2021/03/05 10:42:42;;;;;;;19.87;9.57;;;;;;;5.95;82.94;101064.41;642644;221;24939;-77
2021/03/05 10:45:10;;;;;;;16.70;8.83;;;;;;;5.95;83.62;101066.52;643291;221;27042;-78
2021/03/05 10:47:38;;;;;;;14.70;8.40;;;;;;;6.07;84.82;101071.86;627946;225;24961;-77
2021/03/05 10:50:08;;;;;;;17.47;10.00;;;;;;;6.12;85.99;101082.26;631490;225;24931;-77
2021/03/05 10:52:36;;;;;;;17.77;9.27;;;;;;;6.23;84.21;101081.59;629371;226;24926;-78
2021/03/05 10:55:04;;;;;;;18.53;9.70;;;;;;;6.29;84.28;101089.41;630754;225;24945;-78
2021/03/05 10:57:33;;;;;;;16.33;8.90;;;;;;;6.26;84.85;101083.98;630714;226;24918;-77
2021/03/05 11:00:01;;;;;;;19.53;9.60;;;;;;;6.22;84.91;101093.69;633506;225;24896;-77
2021/03/05 11:02:29;;;;;;;19.70;11.03;;;;;;;6.26;84.15;101093.02;631657;225;24917;-77
2021/03/05 11:04:57;;;;;;;15.53;9.13;;;;;;;6.08;82.36;101093.71;642174;221;24906;-76
2021/03/05 11:07:25;;;;;;;14.90;9.00;;;;;;;6.19;83.01;101088.72;644844;221;24919;-78
2021/03/05 11:09:53;;;;;;;20.30;9.87;;;;;;;6.21;83.24;101097.20;630632;225;24986;-76
2021/03/05 11:12:21;;;;;;;16.40;10.30;;;;;;;6.24;83.71;101095.70;629231;225;24920;-77
2021/03/05 11:14:49;;;;;;;17.73;9.67;;;;;;;6.34;83.53;101102.42;639438;222;24948;-77
2021/03/05 11:17:17;;;;;;;20.33;10.50;;;;;;;6.23;83.58;101096.63;631526;226;24917;-77
2021/03/05 11:19:44;;;;;;;19.43;9.70;;;;;;;6.32;84.09;101100.38;628200;225;24931;-77
2021/03/05 11:22:12;;;;;;;18.10;11.83;;;;;;;6.34;83.34;101100.31;644403;221;24946;-76
2021/03/05 11:24:40;;;;;;;14.93;9.80;;;;;;;6.33;82.00;101090.41;643335;221;25361;-76
2021/03/05 11:27:08;;;;;;;15.20;8.87;;;;;;;6.19;82.75;101089.15;646232;221;24884;-77
2021/03/05 11:29:37;;;;;;;18.03;8.70;;;;;;;6.15;82.38;101089.81;645808;220;24905;-78